sensor_id;sensor_type;location;lat;lon;timestamp;P1;durP1;ratioP1;P2;durP2;ratioP2
66487;SDS011;53304;54.550;18.526;2022-11-13T00:01:54;15.30;;;6.38;;
66487;SDS011;53304;54.550;18.526;2022-11-13T00:04:22;13.15;;;5.97;;
66487;SDS011;53304;54.550;18.526;2022-11-13T00:06:52;17.10;;;6.70;;
66487;SDS011;53304;54.550;18.526;2022-11-13T00:09:20;16.17;;;6.25;;
66487;SDS011;53304;54.550;18.526;2022-11-13T00:11:45;14.20;;;6.75;;
66487;SDS011;53304;54.550;18.526;2022-11-13T00:14:10;15.75;;;5.85;;
66487;SDS011;53304;54.550;18.526;2022-11-13T00:16:36;16.35;;;6.53;;
66487;SDS011;53304;54.550;18.526;2022-11-13T00:19:01;12.25;;;5.82;;
66487;SDS011;53304;54.550;18.526;2022-11-13T00:21:26;15.75;;;6.07;;
66487;SDS011;53304;54.550;18.526;2022-11-13T00:23:54;12.10;;;5.63;;
66487;SDS011;53304;54.550;18.526;2022-11-13T00:26:21;13.05;;;5.97;;
66487;SDS011;53304;54.550;18.526;2022-11-13T00:28:52;16.45;;;6.50;;
66487;SDS011;53304;54.550;18.526;2022-11-13T00:31:18;15.43;;;6.28;;
66487;SDS011;53304;54.550;18.526;2022-11-13T00:33:48;17.23;;;6.10;;
66487;SDS011;53304;54.550;18.526;2022-11-13T00:36:18;11.93;;;6.05;;
66487;SDS011;53304;54.550;18.526;2022-11-13T00:38:45;13.48;;;5.82;;
66487;SDS011;53304;54.550;18.526;2022-11-13T00:41:11;13.07;;;5.90;;
66487;SDS011;53304;54.550;18.526;2022-11-13T00:43:38;11.98;;;5.80;;
66487;SDS011;53304;54.550;18.526;2022-11-13T00:46:07;14.13;;;5.63;;
66487;SDS011;53304;54.550;18.526;2022-11-13T00:48:33;13.23;;;5.50;;
66487;SDS011;53304;54.550;18.526;2022-11-13T00:50:59;16.20;;;6.30;;
66487;SDS011;53304;54.550;18.526;2022-11-13T00:53:25;11.43;;;5.53;;
66487;SDS011;53304;54.550;18.526;2022-11-13T00:55:50;13.30;;;5.85;;
66487;SDS011;53304;54.550;18.526;2022-11-13T00:58:18;14.25;;;5.97;;
66487;SDS011;53304;54.550;18.526;2022-11-13T01:00:44;12.15;;;5.30;;
66487;SDS011;53304;54.550;18.526;2022-11-13T01:03:10;13.32;;;5.40;;
66487;SDS011;53304;54.550;18.526;2022-11-13T01:05:43;12.23;;;5.13;;
66487;SDS011;53304;54.550;18.526;2022-11-13T01:08:12;12.68;;;5.53;;
66487;SDS011;53304;54.550;18.526;2022-11-13T01:10:45;10.75;;;5.22;;
66487;SDS011;53304;54.550;18.526;2022-11-13T01:13:13;9.73;;;4.80;;
66487;SDS011;53304;54.550;18.526;2022-11-13T01:15:43;12.32;;;5.70;;
66487;SDS011;53304;54.550;18.526;2022-11-13T01:18:11;13.10;;;5.60;;
66487;SDS011;53304;54.550;18.526;2022-11-13T01:20:39;13.40;;;5.65;;
66487;SDS011;53304;54.550;18.526;2022-11-13T01:23:05;12.02;;;5.72;;
66487;SDS011;53304;54.550;18.526;2022-11-13T01:25:32;12.02;;;4.88;;
66487;SDS011;53304;54.550;18.526;2022-11-13T01:27:59;11.43;;;5.07;;
66487;SDS011;53304;54.550;18.526;2022-11-13T01:30:24;12.45;;;5.45;;
66487;SDS011;53304;54.550;18.526;2022-11-13T01:32:50;13.00;;;5.57;;
66487;SDS011;53304;54.550;18.526;2022-11-13T01:35:15;11.07;;;5.07;;
66487;SDS011;53304;54.550;18.526;2022-11-13T01:37:43;12.02;;;4.85;;
66487;SDS011;53304;54.550;18.526;2022-11-13T01:40:09;10.93;;;5.00;;
66487;SDS011;53304;54.550;18.526;2022-11-13T01:42:39;11.73;;;5.07;;
66487;SDS011;53304;54.550;18.526;2022-11-13T01:45:48;10.93;;;4.80;;
66487;SDS011;53304;54.550;18.526;2022-11-13T01:48:09;10.05;;;5.05;;
66487;SDS011;53304;54.550;18.526;2022-11-13T01:50:35;10.43;;;4.90;;
66487;SDS011;53304;54.550;18.526;2022-11-13T01:53:01;10.10;;;4.82;;
66487;SDS011;53304;54.550;18.526;2022-11-13T01:55:26;10.95;;;5.05;;
66487;SDS011;53304;54.550;18.526;2022-11-13T01:57:57;9.05;;;4.60;;
66487;SDS011;53304;54.550;18.526;2022-11-13T02:00:23;12.30;;;4.75;;
66487;SDS011;53304;54.550;18.526;2022-11-13T02:02:48;10.80;;;4.88;;
66487;SDS011;53304;54.550;18.526;2022-11-13T02:05:16;11.38;;;4.95;;
66487;SDS011;53304;54.550;18.526;2022-11-13T02:07:43;8.75;;;4.43;;
66487;SDS011;53304;54.550;18.526;2022-11-13T02:10:09;9.25;;;4.50;;
66487;SDS011;53304;54.550;18.526;2022-11-13T02:12:42;10.05;;;4.85;;
66487;SDS011;53304;54.550;18.526;2022-11-13T02:15:11;9.15;;;4.55;;
66487;SDS011;53304;54.550;18.526;2022-11-13T02:20:05;9.48;;;4.80;;
66487;SDS011;53304;54.550;18.526;2022-11-13T02:24:59;8.82;;;4.60;;
66487;SDS011;53304;54.550;18.526;2022-11-13T02:27:42;10.07;;;4.72;;
66487;SDS011;53304;54.550;18.526;2022-11-13T02:32:51;9.03;;;4.50;;
66487;SDS011;53304;54.550;18.526;2022-11-13T02:35:20;8.23;;;4.30;;
66487;SDS011;53304;54.550;18.526;2022-11-13T02:37:48;10.70;;;4.65;;
66487;SDS011;53304;54.550;18.526;2022-11-13T02:40:18;9.23;;;4.50;;
66487;SDS011;53304;54.550;18.526;2022-11-13T02:42:43;8.27;;;4.22;;
66487;SDS011;53304;54.550;18.526;2022-11-13T02:45:09;8.38;;;4.32;;
66487;SDS011;53304;54.550;18.526;2022-11-13T02:47:34;10.15;;;4.22;;
66487;SDS011;53304;54.550;18.526;2022-11-13T02:50:02;9.57;;;4.25;;
66487;SDS011;53304;54.550;18.526;2022-11-13T02:52:29;8.45;;;4.10;;
66487;SDS011;53304;54.550;18.526;2022-11-13T02:54:57;8.98;;;4.35;;
66487;SDS011;53304;54.550;18.526;2022-11-13T02:57:22;10.02;;;4.35;;
66487;SDS011;53304;54.550;18.526;2022-11-13T02:59:47;9.20;;;4.50;;
66487;SDS011;53304;54.550;18.526;2022-11-13T03:02:13;10.05;;;4.30;;
66487;SDS011;53304;54.550;18.526;2022-11-13T03:04:40;9.48;;;4.25;;
66487;SDS011;53304;54.550;18.526;2022-11-13T03:07:06;8.98;;;4.15;;
66487;SDS011;53304;54.550;18.526;2022-11-13T03:09:31;7.82;;;4.35;;
66487;SDS011;53304;54.550;18.526;2022-11-13T03:11:59;8.88;;;4.28;;
66487;SDS011;53304;54.550;18.526;2022-11-13T03:14:24;6.97;;;3.80;;
66487;SDS011;53304;54.550;18.526;2022-11-13T03:16:54;8.05;;;3.78;;
66487;SDS011;53304;54.550;18.526;2022-11-13T03:19:20;9.30;;;4.00;;
66487;SDS011;53304;54.550;18.526;2022-11-13T03:21:45;7.72;;;4.10;;
66487;SDS011;53304;54.550;18.526;2022-11-13T03:24:10;8.90;;;4.10;;
66487;SDS011;53304;54.550;18.526;2022-11-13T03:26:38;9.05;;;4.03;;
66487;SDS011;53304;54.550;18.526;2022-11-13T03:29:03;8.50;;;3.80;;
66487;SDS011;53304;54.550;18.526;2022-11-13T03:31:28;7.53;;;3.78;;
66487;SDS011;53304;54.550;18.526;2022-11-13T03:33:56;7.28;;;3.83;;
66487;SDS011;53304;54.550;18.526;2022-11-13T03:36:24;8.20;;;4.00;;
66487;SDS011;53304;54.550;18.526;2022-11-13T03:38:52;6.55;;;3.83;;
66487;SDS011;53304;54.550;18.526;2022-11-13T03:41:17;10.82;;;4.18;;
66487;SDS011;53304;54.550;18.526;2022-11-13T03:43:43;7.72;;;3.85;;
66487;SDS011;53304;54.550;18.526;2022-11-13T03:46:10;7.32;;;3.50;;
66487;SDS011;53304;54.550;18.526;2022-11-13T03:48:36;9.18;;;3.85;;
66487;SDS011;53304;54.550;18.526;2022-11-13T03:51:01;8.52;;;4.25;;
66487;SDS011;53304;54.550;18.526;2022-11-13T03:53:27;9.20;;;4.13;;
66487;SDS011;53304;54.550;18.526;2022-11-13T03:55:52;8.07;;;3.70;;
66487;SDS011;53304;54.550;18.526;2022-11-13T03:58:18;7.40;;;3.80;;
66487;SDS011;53304;54.550;18.526;2022-11-13T04:00:43;9.13;;;3.83;;
66487;SDS011;53304;54.550;18.526;2022-11-13T04:03:12;8.13;;;3.85;;
66487;SDS011;53304;54.550;18.526;2022-11-13T04:05:37;7.57;;;3.95;;
66487;SDS011;53304;54.550;18.526;2022-11-13T04:08:05;9.57;;;3.58;;
66487;SDS011;53304;54.550;18.526;2022-11-13T04:10:31;7.30;;;3.63;;
66487;SDS011;53304;54.550;18.526;2022-11-13T04:12:56;7.80;;;3.60;;
66487;SDS011;53304;54.550;18.526;2022-11-13T04:15:24;8.52;;;3.50;;
66487;SDS011;53304;54.550;18.526;2022-11-13T04:17:52;7.45;;;3.70;;
66487;SDS011;53304;54.550;18.526;2022-11-13T04:20:20;8.18;;;3.75;;
66487;SDS011;53304;54.550;18.526;2022-11-13T04:22:48;9.43;;;3.55;;
66487;SDS011;53304;54.550;18.526;2022-11-13T04:25:16;7.55;;;3.58;;
66487;SDS011;53304;54.550;18.526;2022-11-13T04:27:44;8.93;;;3.80;;
66487;SDS011;53304;54.550;18.526;2022-11-13T04:30:09;7.93;;;3.40;;
66487;SDS011;53304;54.550;18.526;2022-11-13T04:32:38;6.68;;;3.40;;
66487;SDS011;53304;54.550;18.526;2022-11-13T04:35:06;6.75;;;3.33;;
66487;SDS011;53304;54.550;18.526;2022-11-13T04:37:31;7.18;;;3.40;;
66487;SDS011;53304;54.550;18.526;2022-11-13T04:39:57;7.55;;;3.67;;
66487;SDS011;53304;54.550;18.526;2022-11-13T04:42:24;8.50;;;3.40;;
66487;SDS011;53304;54.550;18.526;2022-11-13T04:45:08;7.13;;;3.20;;
66487;SDS011;53304;54.550;18.526;2022-11-13T04:47:34;6.28;;;3.40;;
66487;SDS011;53304;54.550;18.526;2022-11-13T04:49:59;6.82;;;3.30;;
66487;SDS011;53304;54.550;18.526;2022-11-13T04:52:25;8.30;;;3.30;;
66487;SDS011;53304;54.550;18.526;2022-11-13T04:54:52;7.57;;;3.17;;
66487;SDS011;53304;54.550;18.526;2022-11-13T04:57:20;6.80;;;3.22;;
66487;SDS011;53304;54.550;18.526;2022-11-13T04:59:48;7.25;;;3.22;;
66487;SDS011;53304;54.550;18.526;2022-11-13T05:02:16;5.65;;;3.25;;
66487;SDS011;53304;54.550;18.526;2022-11-13T05:04:44;5.78;;;3.40;;
66487;SDS011;53304;54.550;18.526;2022-11-13T05:07:12;6.47;;;3.10;;
66487;SDS011;53304;54.550;18.526;2022-11-13T05:09:40;5.60;;;3.13;;
66487;SDS011;53304;54.550;18.526;2022-11-13T05:12:05;5.50;;;3.00;;
66487;SDS011;53304;54.550;18.526;2022-11-13T05:14:35;6.22;;;3.35;;
66487;SDS011;53304;54.550;18.526;2022-11-13T05:17:01;6.63;;;3.13;;
66487;SDS011;53304;54.550;18.526;2022-11-13T05:19:28;6.85;;;3.38;;
66487;SDS011;53304;54.550;18.526;2022-11-13T05:21:53;8.13;;;3.03;;
66487;SDS011;53304;54.550;18.526;2022-11-13T05:24:18;7.15;;;3.30;;
66487;SDS011;53304;54.550;18.526;2022-11-13T05:26:46;7.28;;;3.40;;
66487;SDS011;53304;54.550;18.526;2022-11-13T05:29:11;6.28;;;3.00;;
66487;SDS011;53304;54.550;18.526;2022-11-13T05:31:39;5.45;;;3.03;;
66487;SDS011;53304;54.550;18.526;2022-11-13T05:34:04;7.35;;;3.55;;
66487;SDS011;53304;54.550;18.526;2022-11-13T05:36:32;7.50;;;3.13;;
66487;SDS011;53304;54.550;18.526;2022-11-13T05:39:00;6.07;;;3.17;;
66487;SDS011;53304;54.550;18.526;2022-11-13T05:41:28;7.55;;;3.38;;
66487;SDS011;53304;54.550;18.526;2022-11-13T05:43:53;6.85;;;3.15;;
66487;SDS011;53304;54.550;18.526;2022-11-13T05:48:57;6.88;;;3.10;;
66487;SDS011;53304;54.550;18.526;2022-11-13T05:51:24;5.45;;;3.00;;
66487;SDS011;53304;54.550;18.526;2022-11-13T05:53:54;7.43;;;2.95;;
66487;SDS011;53304;54.550;18.526;2022-11-13T05:56:26;5.90;;;2.88;;
66487;SDS011;53304;54.550;18.526;2022-11-13T05:58:56;7.50;;;3.40;;
66487;SDS011;53304;54.550;18.526;2022-11-13T06:03:54;6.70;;;3.08;;
66487;SDS011;53304;54.550;18.526;2022-11-13T06:06:21;6.28;;;2.80;;
66487;SDS011;53304;54.550;18.526;2022-11-13T06:08:47;5.35;;;2.83;;
66487;SDS011;53304;54.550;18.526;2022-11-13T06:11:15;5.25;;;2.83;;
66487;SDS011;53304;54.550;18.526;2022-11-13T06:13:44;5.93;;;2.97;;
66487;SDS011;53304;54.550;18.526;2022-11-13T06:16:14;4.70;;;2.53;;
66487;SDS011;53304;54.550;18.526;2022-11-13T06:18:49;5.88;;;3.20;;
66487;SDS011;53304;54.550;18.526;2022-11-13T06:21:19;6.40;;;3.15;;
66487;SDS011;53304;54.550;18.526;2022-11-13T06:23:45;5.50;;;2.92;;
66487;SDS011;53304;54.550;18.526;2022-11-13T06:26:15;6.53;;;3.17;;
66487;SDS011;53304;54.550;18.526;2022-11-13T06:28:41;6.25;;;3.03;;
66487;SDS011;53304;54.550;18.526;2022-11-13T06:33:39;7.00;;;2.70;;
66487;SDS011;53304;54.550;18.526;2022-11-13T06:36:07;7.85;;;3.03;;
66487;SDS011;53304;54.550;18.526;2022-11-13T06:38:37;9.57;;;3.30;;
66487;SDS011;53304;54.550;18.526;2022-11-13T06:41:09;8.95;;;3.35;;
66487;SDS011;53304;54.550;18.526;2022-11-13T06:43:36;6.30;;;3.00;;
66487;SDS011;53304;54.550;18.526;2022-11-13T06:46:05;5.97;;;3.00;;
66487;SDS011;53304;54.550;18.526;2022-11-13T06:48:34;7.00;;;3.30;;
66487;SDS011;53304;54.550;18.526;2022-11-13T06:51:00;6.88;;;2.72;;
66487;SDS011;53304;54.550;18.526;2022-11-13T06:53:27;7.38;;;2.90;;
66487;SDS011;53304;54.550;18.526;2022-11-13T06:55:52;6.03;;;2.90;;
66487;SDS011;53304;54.550;18.526;2022-11-13T06:58:20;4.50;;;2.72;;
66487;SDS011;53304;54.550;18.526;2022-11-13T07:00:48;6.07;;;2.63;;
66487;SDS011;53304;54.550;18.526;2022-11-13T07:03:16;6.15;;;2.80;;
66487;SDS011;53304;54.550;18.526;2022-11-13T07:05:45;5.30;;;2.60;;
66487;SDS011;53304;54.550;18.526;2022-11-13T07:08:11;6.68;;;3.17;;
66487;SDS011;53304;54.550;18.526;2022-11-13T07:10:40;5.43;;;2.95;;
66487;SDS011;53304;54.550;18.526;2022-11-13T07:13:08;5.68;;;2.90;;
66487;SDS011;53304;54.550;18.526;2022-11-13T07:15:37;5.72;;;2.70;;
66487;SDS011;53304;54.550;18.526;2022-11-13T07:18:05;5.45;;;2.60;;
66487;SDS011;53304;54.550;18.526;2022-11-13T07:20:33;4.45;;;2.50;;
66487;SDS011;53304;54.550;18.526;2022-11-13T07:23:00;8.45;;;3.05;;
66487;SDS011;53304;54.550;18.526;2022-11-13T07:25:29;6.13;;;2.80;;
66487;SDS011;53304;54.550;18.526;2022-11-13T07:27:58;8.00;;;3.05;;
66487;SDS011;53304;54.550;18.526;2022-11-13T07:30:26;7.70;;;3.00;;
66487;SDS011;53304;54.550;18.526;2022-11-13T07:32:51;12.55;;;3.08;;
66487;SDS011;53304;54.550;18.526;2022-11-13T07:35:17;7.78;;;2.92;;
66487;SDS011;53304;54.550;18.526;2022-11-13T07:37:42;6.88;;;3.13;;
66487;SDS011;53304;54.550;18.526;2022-11-13T07:40:13;8.70;;;3.08;;
66487;SDS011;53304;54.550;18.526;2022-11-13T07:42:38;7.00;;;2.50;;
66487;SDS011;53304;54.550;18.526;2022-11-13T07:45:08;8.68;;;2.97;;
66487;SDS011;53304;54.550;18.526;2022-11-13T07:47:35;9.90;;;3.97;;
66487;SDS011;53304;54.550;18.526;2022-11-13T07:50:03;13.77;;;3.92;;
66487;SDS011;53304;54.550;18.526;2022-11-13T07:52:31;8.15;;;3.42;;
66487;SDS011;53304;54.550;18.526;2022-11-13T07:54:59;8.93;;;3.50;;
66487;SDS011;53304;54.550;18.526;2022-11-13T07:57:25;9.60;;;3.50;;
66487;SDS011;53304;54.550;18.526;2022-11-13T07:59:51;8.82;;;3.35;;
66487;SDS011;53304;54.550;18.526;2022-11-13T08:02:21;8.43;;;3.58;;
66487;SDS011;53304;54.550;18.526;2022-11-13T08:04:48;8.82;;;3.58;;
66487;SDS011;53304;54.550;18.526;2022-11-13T08:07:14;9.25;;;3.30;;
66487;SDS011;53304;54.550;18.526;2022-11-13T08:09:41;11.27;;;3.47;;
66487;SDS011;53304;54.550;18.526;2022-11-13T08:12:07;9.00;;;3.47;;
66487;SDS011;53304;54.550;18.526;2022-11-13T08:14:35;8.85;;;3.25;;
66487;SDS011;53304;54.550;18.526;2022-11-13T08:17:05;9.73;;;3.45;;
66487;SDS011;53304;54.550;18.526;2022-11-13T08:19:30;6.72;;;2.88;;
66487;SDS011;53304;54.550;18.526;2022-11-13T08:22:03;8.20;;;3.30;;
66487;SDS011;53304;54.550;18.526;2022-11-13T08:24:28;9.30;;;3.22;;
66487;SDS011;53304;54.550;18.526;2022-11-13T08:26:53;11.23;;;3.70;;
66487;SDS011;53304;54.550;18.526;2022-11-13T08:29:19;7.85;;;3.30;;
66487;SDS011;53304;54.550;18.526;2022-11-13T08:31:49;9.32;;;3.60;;
66487;SDS011;53304;54.550;18.526;2022-11-13T08:34:15;10.93;;;3.85;;
66487;SDS011;53304;54.550;18.526;2022-11-13T08:36:40;10.23;;;3.85;;
66487;SDS011;53304;54.550;18.526;2022-11-13T08:39:08;7.28;;;3.25;;
66487;SDS011;53304;54.550;18.526;2022-11-13T08:41:36;9.25;;;3.78;;
66487;SDS011;53304;54.550;18.526;2022-11-13T08:44:01;8.13;;;4.22;;
66487;SDS011;53304;54.550;18.526;2022-11-13T08:46:27;9.55;;;4.20;;
66487;SDS011;53304;54.550;18.526;2022-11-13T08:48:54;12.00;;;4.35;;
66487;SDS011;53304;54.550;18.526;2022-11-13T08:51:20;8.40;;;4.32;;
66487;SDS011;53304;54.550;18.526;2022-11-13T08:53:47;11.10;;;4.13;;
66487;SDS011;53304;54.550;18.526;2022-11-13T08:56:15;11.82;;;4.53;;
66487;SDS011;53304;54.550;18.526;2022-11-13T08:58:40;9.43;;;4.50;;
66487;SDS011;53304;54.550;18.526;2022-11-13T09:01:06;9.75;;;3.85;;
66487;SDS011;53304;54.550;18.526;2022-11-13T09:03:34;9.57;;;3.92;;
66487;SDS011;53304;54.550;18.526;2022-11-13T09:06:03;8.80;;;4.03;;
66487;SDS011;53304;54.550;18.526;2022-11-13T09:08:29;13.38;;;4.35;;
66487;SDS011;53304;54.550;18.526;2022-11-13T09:10:56;11.05;;;4.50;;
66487;SDS011;53304;54.550;18.526;2022-11-13T09:13:24;11.77;;;3.92;;
66487;SDS011;53304;54.550;18.526;2022-11-13T09:15:51;11.40;;;4.18;;
66487;SDS011;53304;54.550;18.526;2022-11-13T09:18:23;9.73;;;4.22;;
66487;SDS011;53304;54.550;18.526;2022-11-13T09:20:51;7.22;;;3.53;;
66487;SDS011;53304;54.550;18.526;2022-11-13T09:23:19;11.38;;;3.67;;
66487;SDS011;53304;54.550;18.526;2022-11-13T09:25:45;9.40;;;4.13;;
66487;SDS011;53304;54.550;18.526;2022-11-13T09:28:10;9.52;;;3.45;;
66487;SDS011;53304;54.550;18.526;2022-11-13T09:30:38;9.30;;;3.60;;
66487;SDS011;53304;54.550;18.526;2022-11-13T09:33:04;9.40;;;3.30;;
66487;SDS011;53304;54.550;18.526;2022-11-13T09:35:32;8.70;;;3.40;;
66487;SDS011;53304;54.550;18.526;2022-11-13T09:38:02;7.50;;;3.35;;
66487;SDS011;53304;54.550;18.526;2022-11-13T09:40:31;8.30;;;3.85;;
66487;SDS011;53304;54.550;18.526;2022-11-13T09:43:00;9.10;;;3.40;;
66487;SDS011;53304;54.550;18.526;2022-11-13T09:45:27;19.80;;;4.05;;
66487;SDS011;53304;54.550;18.526;2022-11-13T09:47:55;16.38;;;4.45;;
66487;SDS011;53304;54.550;18.526;2022-11-13T09:50:26;24.75;;;4.35;;
66487;SDS011;53304;54.550;18.526;2022-11-13T09:52:58;20.17;;;5.13;;
66487;SDS011;53304;54.550;18.526;2022-11-13T09:55:25;19.30;;;4.72;;
66487;SDS011;53304;54.550;18.526;2022-11-13T10:00:33;19.38;;;3.95;;
66487;SDS011;53304;54.550;18.526;2022-11-13T10:03:21;13.30;;;3.85;;
66487;SDS011;53304;54.550;18.526;2022-11-13T10:06:08;22.15;;;4.18;;
66487;SDS011;53304;54.550;18.526;2022-11-13T10:11:37;12.98;;;4.00;;
66487;SDS011;53304;54.550;18.526;2022-11-13T10:14:11;13.00;;;4.03;;
66487;SDS011;53304;54.550;18.526;2022-11-13T10:16:52;13.27;;;3.63;;
66487;SDS011;53304;54.550;18.526;2022-11-13T10:19:25;12.77;;;3.70;;
66487;SDS011;53304;54.550;18.526;2022-11-13T10:22:09;12.65;;;3.10;;
66487;SDS011;53304;54.550;18.526;2022-11-13T10:24:41;19.90;;;3.67;;
66487;SDS011;53304;54.550;18.526;2022-11-13T10:27:08;15.68;;;3.60;;
66487;SDS011;53304;54.550;18.526;2022-11-13T10:29:38;12.07;;;3.88;;
66487;SDS011;53304;54.550;18.526;2022-11-13T10:34:42;12.77;;;4.40;;
66487;SDS011;53304;54.550;18.526;2022-11-13T10:39:56;14.95;;;4.53;;
66487;SDS011;53304;54.550;18.526;2022-11-13T10:42:28;20.08;;;4.97;;
66487;SDS011;53304;54.550;18.526;2022-11-13T10:45:02;15.50;;;5.10;;
66487;SDS011;53304;54.550;18.526;2022-11-13T10:47:30;20.88;;;5.85;;
66487;SDS011;53304;54.550;18.526;2022-11-13T10:49:56;14.57;;;5.05;;
66487;SDS011;53304;54.550;18.526;2022-11-13T10:52:25;16.00;;;5.47;;
66487;SDS011;53304;54.550;18.526;2022-11-13T10:57:58;17.67;;;5.60;;
66487;SDS011;53304;54.550;18.526;2022-11-13T11:00:32;13.25;;;5.25;;
66487;SDS011;53304;54.550;18.526;2022-11-13T11:03:02;12.80;;;5.13;;
66487;SDS011;53304;54.550;18.526;2022-11-13T11:05:31;17.98;;;6.40;;
66487;SDS011;53304;54.550;18.526;2022-11-13T11:07:57;16.67;;;6.10;;
66487;SDS011;53304;54.550;18.526;2022-11-13T11:10:30;16.05;;;5.97;;
66487;SDS011;53304;54.550;18.526;2022-11-13T11:13:04;14.70;;;5.70;;
66487;SDS011;53304;54.550;18.526;2022-11-13T11:21:10;15.38;;;6.13;;
66487;SDS011;53304;54.550;18.526;2022-11-13T11:26:24;16.55;;;6.43;;
66487;SDS011;53304;54.550;18.526;2022-11-13T11:32:12;18.00;;;6.55;;
66487;SDS011;53304;54.550;18.526;2022-11-13T11:34:47;15.88;;;6.50;;
66487;SDS011;53304;54.550;18.526;2022-11-13T11:37:18;13.52;;;6.28;;
66487;SDS011;53304;54.550;18.526;2022-11-13T11:42:17;18.02;;;6.97;;
66487;SDS011;53304;54.550;18.526;2022-11-13T11:47:36;15.68;;;7.03;;
66487;SDS011;53304;54.550;18.526;2022-11-13T11:50:05;18.27;;;6.30;;
66487;SDS011;53304;54.550;18.526;2022-11-13T12:09:35;15.90;;;7.05;;
66487;SDS011;53304;54.550;18.526;2022-11-13T12:20:52;17.08;;;7.38;;
66487;SDS011;53304;54.550;18.526;2022-11-13T12:28:47;16.50;;;7.63;;
66487;SDS011;53304;54.550;18.526;2022-11-13T12:34:18;19.63;;;7.90;;
66487;SDS011;53304;54.550;18.526;2022-11-13T12:36:47;17.77;;;7.88;;
66487;SDS011;53304;54.550;18.526;2022-11-13T12:44:23;16.83;;;7.93;;
66487;SDS011;53304;54.550;18.526;2022-11-13T12:46:53;17.35;;;7.45;;
66487;SDS011;53304;54.550;18.526;2022-11-13T12:52:15;19.05;;;8.05;;
66487;SDS011;53304;54.550;18.526;2022-11-13T12:54:42;16.45;;;7.53;;
66487;SDS011;53304;54.550;18.526;2022-11-13T12:59:43;18.27;;;8.07;;
66487;SDS011;53304;54.550;18.526;2022-11-13T13:16:03;16.73;;;7.53;;
66487;SDS011;53304;54.550;18.526;2022-11-13T13:18:34;18.40;;;7.47;;
66487;SDS011;53304;54.550;18.526;2022-11-13T13:23:43;17.10;;;7.30;;
66487;SDS011;53304;54.550;18.526;2022-11-13T13:26:16;15.93;;;7.53;;
66487;SDS011;53304;54.550;18.526;2022-11-13T13:28:55;17.45;;;7.50;;
66487;SDS011;53304;54.550;18.526;2022-11-13T13:45:46;16.17;;;6.80;;
66487;SDS011;53304;54.550;18.526;2022-11-13T13:48:18;15.55;;;7.05;;
66487;SDS011;53304;54.550;18.526;2022-11-13T13:50:45;13.98;;;6.50;;
66487;SDS011;53304;54.550;18.526;2022-11-13T13:53:15;14.27;;;6.93;;
66487;SDS011;53304;54.550;18.526;2022-11-13T13:55:46;15.13;;;6.82;;
66487;SDS011;53304;54.550;18.526;2022-11-13T13:58:14;13.98;;;7.05;;
66487;SDS011;53304;54.550;18.526;2022-11-13T14:00:52;19.30;;;7.30;;
66487;SDS011;53304;54.550;18.526;2022-11-13T14:03:23;15.60;;;6.90;;
66487;SDS011;53304;54.550;18.526;2022-11-13T14:05:49;15.10;;;6.85;;
66487;SDS011;53304;54.550;18.526;2022-11-13T14:08:24;15.32;;;6.88;;
66487;SDS011;53304;54.550;18.526;2022-11-13T14:10:53;16.23;;;7.15;;
66487;SDS011;53304;54.550;18.526;2022-11-13T14:13:25;15.02;;;6.50;;
66487;SDS011;53304;54.550;18.526;2022-11-13T14:16:03;15.20;;;6.60;;
66487;SDS011;53304;54.550;18.526;2022-11-13T14:18:30;12.95;;;6.55;;
66487;SDS011;53304;54.550;18.526;2022-11-13T14:21:00;14.13;;;6.50;;
66487;SDS011;53304;54.550;18.526;2022-11-13T14:25:57;15.43;;;6.82;;
66487;SDS011;53304;54.550;18.526;2022-11-13T14:28:25;12.90;;;6.68;;
66487;SDS011;53304;54.550;18.526;2022-11-13T14:30:56;14.15;;;6.60;;
66487;SDS011;53304;54.550;18.526;2022-11-13T14:33:31;13.43;;;6.70;;
66487;SDS011;53304;54.550;18.526;2022-11-13T14:36:00;13.70;;;7.32;;
66487;SDS011;53304;54.550;18.526;2022-11-13T14:38:28;19.92;;;8.45;;
66487;SDS011;53304;54.550;18.526;2022-11-13T14:40:57;18.33;;;8.00;;
66487;SDS011;53304;54.550;18.526;2022-11-13T14:43:29;17.40;;;8.30;;
66487;SDS011;53304;54.550;18.526;2022-11-13T14:45:59;16.83;;;8.07;;
66487;SDS011;53304;54.550;18.526;2022-11-13T14:48:26;19.00;;;8.18;;
66487;SDS011;53304;54.550;18.526;2022-11-13T14:50:54;15.25;;;7.63;;
66487;SDS011;53304;54.550;18.526;2022-11-13T14:53:29;16.67;;;8.15;;
66487;SDS011;53304;54.550;18.526;2022-11-13T14:55:59;16.38;;;8.20;;
66487;SDS011;53304;54.550;18.526;2022-11-13T15:00:54;16.45;;;7.57;;
66487;SDS011;53304;54.550;18.526;2022-11-13T15:03:21;14.45;;;7.55;;
66487;SDS011;53304;54.550;18.526;2022-11-13T15:05:47;14.50;;;7.30;;
66487;SDS011;53304;54.550;18.526;2022-11-13T15:08:15;16.08;;;7.93;;
66487;SDS011;53304;54.550;18.526;2022-11-13T15:10:41;14.18;;;7.70;;
66487;SDS011;53304;54.550;18.526;2022-11-13T15:13:13;15.20;;;7.53;;
66487;SDS011;53304;54.550;18.526;2022-11-13T15:15:42;15.23;;;7.63;;
66487;SDS011;53304;54.550;18.526;2022-11-13T15:18:14;17.88;;;7.72;;
66487;SDS011;53304;54.550;18.526;2022-11-13T15:20:47;20.35;;;7.82;;
66487;SDS011;53304;54.550;18.526;2022-11-13T15:23:13;27.00;;;7.45;;
66487;SDS011;53304;54.550;18.526;2022-11-13T15:25:42;20.85;;;7.35;;
66487;SDS011;53304;54.550;18.526;2022-11-13T15:28:07;17.02;;;7.25;;
66487;SDS011;53304;54.550;18.526;2022-11-13T15:30:33;18.35;;;6.97;;
66487;SDS011;53304;54.550;18.526;2022-11-13T15:33:01;20.23;;;6.95;;
66487;SDS011;53304;54.550;18.526;2022-11-13T15:35:26;17.98;;;7.30;;
66487;SDS011;53304;54.550;18.526;2022-11-13T15:37:52;17.65;;;6.35;;
66487;SDS011;53304;54.550;18.526;2022-11-13T15:40:18;17.92;;;6.97;;
66487;SDS011;53304;54.550;18.526;2022-11-13T15:42:43;23.15;;;7.10;;
66487;SDS011;53304;54.550;18.526;2022-11-13T15:45:14;19.30;;;7.18;;
66487;SDS011;53304;54.550;18.526;2022-11-13T15:47:40;17.00;;;6.63;;
66487;SDS011;53304;54.550;18.526;2022-11-13T15:50:06;16.48;;;6.25;;
66487;SDS011;53304;54.550;18.526;2022-11-13T15:52:35;19.42;;;6.72;;
66487;SDS011;53304;54.550;18.526;2022-11-13T15:55:03;18.10;;;6.57;;
66487;SDS011;53304;54.550;18.526;2022-11-13T15:57:31;19.30;;;6.80;;
66487;SDS011;53304;54.550;18.526;2022-11-13T15:59:56;13.05;;;6.15;;
66487;SDS011;53304;54.550;18.526;2022-11-13T16:02:22;11.52;;;5.82;;
66487;SDS011;53304;54.550;18.526;2022-11-13T16:04:53;13.27;;;5.95;;
66487;SDS011;53304;54.550;18.526;2022-11-13T16:07:21;10.68;;;5.95;;
66487;SDS011;53304;54.550;18.526;2022-11-13T16:09:50;15.68;;;5.95;;
66487;SDS011;53304;54.550;18.526;2022-11-13T16:12:15;13.68;;;5.90;;
66487;SDS011;53304;54.550;18.526;2022-11-13T16:14:40;14.82;;;6.85;;
66487;SDS011;53304;54.550;18.526;2022-11-13T16:19:36;15.10;;;7.38;;
66487;SDS011;53304;54.550;18.526;2022-11-13T16:22:06;16.13;;;7.55;;
66487;SDS011;53304;54.550;18.526;2022-11-13T16:24:40;19.05;;;7.78;;
66487;SDS011;53304;54.550;18.526;2022-11-13T16:27:11;16.63;;;7.80;;
66487;SDS011;53304;54.550;18.526;2022-11-13T16:29:38;18.38;;;8.20;;
66487;SDS011;53304;54.550;18.526;2022-11-13T16:32:03;15.95;;;8.18;;
66487;SDS011;53304;54.550;18.526;2022-11-13T16:34:31;17.85;;;8.02;;
66487;SDS011;53304;54.550;18.526;2022-11-13T16:36:57;16.27;;;8.68;;
66487;SDS011;53304;54.550;18.526;2022-11-13T16:39:27;15.57;;;7.80;;
66487;SDS011;53304;54.550;18.526;2022-11-13T16:41:52;16.13;;;8.20;;
66487;SDS011;53304;54.550;18.526;2022-11-13T16:44:18;16.15;;;8.20;;